This is the latest recevied weather packets stored in our database for station/object DL6MM-4. If no packets are shown the sender has not sent any weather packets the latest 10 day(s).
| Time | Temp. | Humidity | Pressure | Rain* | Wind** | Luminosity | Snow |
|---|---|---|---|---|---|---|---|
| 1777670955 | 13.89° C | 63% | 1022 hPa | 0 mm | - | - | - |
| 1777670355 | 13.89° C | 63% | 1022 hPa | 0 mm | - | - | - |
| 1777669755 | 13.89° C | 64% | 1022.1 hPa | 0 mm | - | - | - |
| 1777669155 | 13.33° C | 65% | 1022.1 hPa | 0 mm | - | - | - |
| 1777668555 | 13.33° C | 66% | 1022 hPa | 0 mm | - | - | - |
| 1777667955 | 13.33° C | 66% | 1022.1 hPa | 0 mm | - | - | - |
| 1777667355 | 13.33° C | 67% | 1022.1 hPa | 0 mm | - | - | - |
| 1777666755 | 13.33° C | 67% | 1022.2 hPa | 0 mm | - | - | - |
| 1777666155 | 13.33° C | 66% | 1022.2 hPa | 0 mm | - | - | - |
| 1777665555 | 13.89° C | 65% | 1022.2 hPa | 0 mm | - | - | - |
| 1777664955 | 13.89° C | 65% | 1022.2 hPa | 0 mm | - | - | - |
| 1777664355 | 13.89° C | 65% | 1022.2 hPa | 0 mm | - | - | - |
| 1777663755 | 13.89° C | 64% | 1022.2 hPa | 0 mm | - | - | - |
| 1777663155 | 14.44° C | 63% | 1022.2 hPa | 0 mm | - | - | - |
| 1777662555 | 14.44° C | 62% | 1022.2 hPa | 0 mm | - | - | - |
| 1777661955 | 15.56° C | 58% | 1022.2 hPa | 0 mm | - | - | - |
| 1777661355 | 16.67° C | 53% | 1022.2 hPa | 0 mm | - | - | - |
| 1777660755 | 17.78° C | 48% | 1022.2 hPa | 0 mm | - | - | - |
| 1777660155 | 18.89° C | 45% | 1022.2 hPa | 0 mm | - | - | - |
| 1777659555 | 18.89° C | 44% | 1022.2 hPa | 0 mm | - | - | - |
| 1777658955 | 19.44° C | 43% | 1022.2 hPa | 0 mm | - | - | - |
| 1777658355 | 20° C | 41% | 1022.2 hPa | 0 mm | - | - | - |
| 1777657755 | 20.56° C | 40% | 1022.2 hPa | 0 mm | - | - | - |
| 1777657155 | 20.56° C | 40% | 1022.1 hPa | 0 mm | - | - | - |
| 1777656555 | 20.56° C | 39% | 1022.2 hPa | 0 mm | - | - | - |
* Rain latest hour (hover to see other rain measurements)
** Current wind speed in m/s (hover to see current wind gust speed)